Olib — 9AA6266 — position and weather

sailwx.info

Track history (hours):
 
Tides and Currents Weather Stations Pressure Air Temp Water Temp Dewpoint Dewpoint Depression Visibility Wind Speed Wind Dir Waves Ship Positions

Olib

Last reported at 2014-Jun-27 00:07 UTC. Time now 2014-Jul-24 23:04 UTC.
Position N 36°25' E 014°58'.
Warning: this ship's position is 27 days out of date.

Length 247 m; draft 11.7 m.

Type: Tanker. MMSI: 238252000.

Date/timePositionNaut miles runAvg speedWind from/ knotsBaromVisibWave heightAir tempDewpointWater temp
2014-Jun-27 00:07N 36°25' E 014°58'911.9
2014-Jun-26 23:21N 36°24' E 014°47'911.8
2014-Jun-26 22:33N 36°25' E 014°35'1212.1
2014-Jun-26 21:33N 36°28' E 014°21'1411.8
2014-Jun-26 20:22N 36°31' E 014°04'1011.7
2014-Jun-26 19:33N 36°33' E 013°52'1211.5
2014-Jun-26 18:32N 36°37' E 013°38'1111.4
2014-Jun-26 17:33N 36°40' E 013°25'1111.4
2014-Jun-26 16:33N 36°43' E 013°11'1211.6
2014-Jun-26 15:33N 36°46' E 012°57'2612.6
2014-Jun-26 13:27N 36°54' E 012°26'7112.0
2014-Jun-26 07:33N 37°24' E 011°05'1111.1
2014-Jun-26 06:33N 37°27' E 010°51'1110.5
2014-Jun-26 05:30N 37°30' E 010°38'1310.6
2014-Jun-26 04:17N 37°32' E 010°22'2011.4
2014-Jun-26 02:33N 37°33' E 009°57'1611.8
2014-Jun-26 01:11N 37°28' E 009°38'3211.9
2014-Jun-25 22:28N 37°19' E 008°59'  
2014-Jun-23 11:30N 35°59' W 005°22'23410.2
2014-Jun-22 12:33N 37°29' W 009°50'1611.4
2014-Jun-22 11:08N 37°44' W 009°55'  
2014-Jun-19 06:25N 50°10' W 001°57'1214.6
2014-Jun-19 05:34N 50°14' W 001°38'1413.7
2014-Jun-19 04:33N 50°17' W 001°18'1212.2
2014-Jun-19 03:33N 50°20' W 000°59'1010.2
2014-Jun-19 02:34N 50°23' W 000°44'9 9.1
2014-Jun-19 01:34N 50°25' W 000°30'9 9.0
2014-Jun-19 00:34N 50°28' W 000°16'10 9.6
2014-Jun-18 23:29N 50°30' W 000°01'1110.7
2014-Jun-18 22:28N 50°33' E 000°16'1112.1
2014-Jun-18 21:33N 50°36' E 000°32'1312.5
2014-Jun-18 20:33N 50°43' E 000°49'1212.3
2014-Jun-18 19:34N 50°50' E 001°06'1311.1
2014-Jun-18 18:25N 50°57' E 001°22'8 9.9
2014-Jun-18 17:33N 51°03' E 001°31'9 8.9
2014-Jun-18 16:34N 51°10' E 001°41'1010.1
2014-Jun-18 15:33N 51°18' E 001°50'1212.5
2014-Jun-18 14:34N 51°29' E 001°60'1312.8
2014-Jun-18 13:33N 51°38' E 002°14'165 9.2
2014-Jun-17 19:33N 54°15' E 000°47'1212.3
2014-Jun-17 18:33N 54°20' E 000°28'1212.1
2014-Jun-17 17:34N 54°24' E 000°09'1211.6
2014-Jun-17 16:33N 54°29' W 000°09'1110.9
2014-Jun-17 15:33N 54°34' W 000°26'1010.0
2014-Jun-17 14:31N 54°38' W 000°43'1010.7
2014-Jun-17 13:33N 54°41' W 000°60'7 6.7
2014-Jun-17 12:33N 54°37' W 001°10'0 0.0
2014-Jun-17 11:18N 54°37' W 001°10'0 0.0
2014-Jun-17 10:09N 54°37' W 001°10'0 0.0
2014-Jun-17 09:24N 54°37' W 001°10'0 0.0
2014-Jun-17 08:27N 54°37' W 001°10'0 0.0
2014-Jun-17 07:12N 54°37' W 001°10'0 0.0
2014-Jun-17 06:30N 54°37' W 001°10'0 0.0
2014-Jun-17 05:30N 54°37' W 001°10'0 0.0
2014-Jun-17 04:27N 54°37' W 001°10'0 0.0
2014-Jun-17 03:30N 54°37' W 001°10'0 0.0
2014-Jun-17 02:33N 54°37' W 001°10'0 0.0
2014-Jun-17 01:33N 54°37' W 001°10'0 0.0
2014-Jun-17 00:33N 54°37' W 001°10'  
Track history (hours):
 
Tides and Currents Weather Stations Pressure Air Temp Water Temp Dewpoint Dewpoint Depression Visibility Wind Speed Wind Dir Waves Ship Positions

Olib

Last reported at 2014-Jun-27 00:07 UTC. Time now 2014-Jul-24 23:04 UTC.
Position N 36°25' E 014°58'.
Warning: this ship's position is 27 days out of date.

Length 247 m; draft 11.7 m.

Type: Tanker. MMSI: 238252000.

Date/timePositionNaut miles runAvg speedWind from/ knotsBaromVisibWave heightAir tempDewpointWater temp
2014-Jun-27 00:07N 36°25' E 014°58'911.9
2014-Jun-26 23:21N 36°24' E 014°47'911.8
2014-Jun-26 22:33N 36°25' E 014°35'1212.1
2014-Jun-26 21:33N 36°28' E 014°21'1411.8
2014-Jun-26 20:22N 36°31' E 014°04'1011.7
2014-Jun-26 19:33N 36°33' E 013°52'1211.5
2014-Jun-26 18:32N 36°37' E 013°38'1111.4
2014-Jun-26 17:33N 36°40' E 013°25'1111.4
2014-Jun-26 16:33N 36°43' E 013°11'1211.6
2014-Jun-26 15:33N 36°46' E 012°57'2612.6
2014-Jun-26 13:27N 36°54' E 012°26'7112.0
2014-Jun-26 07:33N 37°24' E 011°05'1111.1
2014-Jun-26 06:33N 37°27' E 010°51'1110.5
2014-Jun-26 05:30N 37°30' E 010°38'1310.6
2014-Jun-26 04:17N 37°32' E 010°22'2011.4
2014-Jun-26 02:33N 37°33' E 009°57'1611.8
2014-Jun-26 01:11N 37°28' E 009°38'3211.9
2014-Jun-25 22:28N 37°19' E 008°59'  
2014-Jun-23 11:30N 35°59' W 005°22'23410.2
2014-Jun-22 12:33N 37°29' W 009°50'1611.4
2014-Jun-22 11:08N 37°44' W 009°55'  
2014-Jun-19 06:25N 50°10' W 001°57'1214.6
2014-Jun-19 05:34N 50°14' W 001°38'1413.7
2014-Jun-19 04:33N 50°17' W 001°18'1212.2
2014-Jun-19 03:33N 50°20' W 000°59'1010.2
2014-Jun-19 02:34N 50°23' W 000°44'9 9.1
2014-Jun-19 01:34N 50°25' W 000°30'9 9.0
2014-Jun-19 00:34N 50°28' W 000°16'10 9.6
2014-Jun-18 23:29N 50°30' W 000°01'1110.7
2014-Jun-18 22:28N 50°33' E 000°16'1112.1
2014-Jun-18 21:33N 50°36' E 000°32'1312.5
2014-Jun-18 20:33N 50°43' E 000°49'1212.3
2014-Jun-18 19:34N 50°50' E 001°06'1311.1
2014-Jun-18 18:25N 50°57' E 001°22'8 9.9
2014-Jun-18 17:33N 51°03' E 001°31'9 8.9
2014-Jun-18 16:34N 51°10' E 001°41'1010.1
2014-Jun-18 15:33N 51°18' E 001°50'1212.5
2014-Jun-18 14:34N 51°29' E 001°60'1312.8
2014-Jun-18 13:33N 51°38' E 002°14'165 9.2
2014-Jun-17 19:33N 54°15' E 000°47'1212.3
2014-Jun-17 18:33N 54°20' E 000°28'1212.1
2014-Jun-17 17:34N 54°24' E 000°09'1211.6
2014-Jun-17 16:33N 54°29' W 000°09'1110.9
2014-Jun-17 15:33N 54°34' W 000°26'1010.0
2014-Jun-17 14:31N 54°38' W 000°43'1010.7
2014-Jun-17 13:33N 54°41' W 000°60'7 6.7
2014-Jun-17 12:33N 54°37' W 001°10'0 0.0
2014-Jun-17 11:18N 54°37' W 001°10'0 0.0
2014-Jun-17 10:09N 54°37' W 001°10'0 0.0
2014-Jun-17 09:24N 54°37' W 001°10'0 0.0
2014-Jun-17 08:27N 54°37' W 001°10'0 0.0
2014-Jun-17 07:12N 54°37' W 001°10'0 0.0
2014-Jun-17 06:30N 54°37' W 001°10'0 0.0
2014-Jun-17 05:30N 54°37' W 001°10'0 0.0
2014-Jun-17 04:27N 54°37' W 001°10'0 0.0
2014-Jun-17 03:30N 54°37' W 001°10'0 0.0
2014-Jun-17 02:33N 54°37' W 001°10'0 0.0
2014-Jun-17 01:33N 54°37' W 001°10'0 0.0
2014-Jun-17 00:33N 54°37' W 001°10'  

Dump ship's entire track history